Time,TemperatureF,DewpointF,PressureIn,WindDirection,WindDirectionDegrees,WindSpeedMPH,WindSpeedGustMPH,Humidity,HourlyPrecipIn,Conditions,Clouds,dailyrainin,SoftwareType,DateUTC
2013-09-12 00:00:00,66.3,64.5,29.93,NNW,336,0.0,0.0,94,0.00,,,0.00,Wunderground v.1.15,2013-09-12 05:00:00,
2013-09-12 00:10:00,66.4,64.9,29.94,NNW,336,0.0,0.0,95,0.00,,,0.00,Wunderground v.1.15,2013-09-12 05:10:00,
2013-09-12 00:20:00,66.4,64.9,29.94,NNW,336,0.0,0.0,95,0.00,,,0.00,Wunderground v.1.15,2013-09-12 05:20:00,
2013-09-12 00:25:00,66.3,64.8,29.94,NNW,336,0.0,0.0,95,0.00,,,0.00,Wunderground v.1.15,2013-09-12 05:25:00,
2013-09-12 00:35:00,66.3,64.8,29.94,NNW,336,0.0,0.0,95,0.00,,,0.00,Wunderground v.1.15,2013-09-12 05:35:00,
2013-09-12 00:40:00,66.3,64.8,29.94,NNW,336,0.0,0.0,95,0.00,,,0.00,Wunderground v.1.15,2013-09-12 05:40:00,
2013-09-12 00:50:00,66.3,64.8,29.95,NNW,336,0.0,0.0,95,0.00,,,0.00,Wunderground v.1.15,2013-09-12 05:50:00,
2013-09-12 00:55:00,66.4,64.9,29.94,WSW,240,0.0,0.0,95,0.00,,,0.00,Wunderground v.1.15,2013-09-12 05:55:00,
2013-09-12 01:00:00,66.4,64.9,29.95,WSW,240,0.0,0.0,95,0.00,,,0.00,Wunderground v.1.15,2013-09-12 06:00:00,
2013-09-12 01:10:00,66.3,64.8,29.95,WSW,240,0.0,0.0,95,0.00,,,0.00,Wunderground v.1.15,2013-09-12 06:10:00,
2013-09-12 01:20:00,66.2,64.7,29.94,WSW,240,0.0,0.0,95,0.00,,,0.00,Wunderground v.1.15,2013-09-12 06:20:00,
2013-09-12 01:25:00,66.3,64.8,29.94,WSW,240,0.0,0.0,95,0.00,,,0.00,Wunderground v.1.15,2013-09-12 06:25:00,
2013-09-12 01:30:00,66.2,64.7,29.94,WSW,240,0.0,0.0,95,0.00,,,0.00,Wunderground v.1.15,2013-09-12 06:30:00,
2013-09-12 01:35:00,66.1,64.6,29.94,WSW,240,0.0,0.0,95,0.00,,,0.00,Wunderground v.1.15,2013-09-12 06:35:00,
2013-09-12 01:40:00,66.0,64.5,29.94,WSW,240,0.0,0.0,95,0.00,,,0.00,Wunderground v.1.15,2013-09-12 06:40:00,
2013-09-12 01:50:00,65.7,64.2,29.94,WSW,240,0.0,0.0,95,0.00,,,0.00,Wunderground v.1.15,2013-09-12 06:50:00,
2013-09-12 01:55:00,65.7,64.2,29.94,WSW,240,0.0,0.0,95,0.00,,,0.00,Wunderground v.1.15,2013-09-12 06:55:00,
2013-09-12 02:05:00,65.8,64.3,29.94,WSW,240,0.0,0.0,95,0.00,,,0.00,Wunderground v.1.15,2013-09-12 07:05:00,
2013-09-12 02:10:00,65.7,64.2,29.94,WSW,240,0.0,0.0,95,0.00,,,0.00,Wunderground v.1.15,2013-09-12 07:10:00,
2013-09-12 02:20:00,65.4,63.9,29.94,WSW,240,0.0,0.0,95,0.00,,,0.00,Wunderground v.1.15,2013-09-12 07:20:00,
2013-09-12 02:25:00,65.2,63.7,29.94,WSW,240,0.0,0.0,95,0.00,,,0.00,Wunderground v.1.15,2013-09-12 07:25:00,
2013-09-12 02:30:00,65.0,63.5,29.94,WSW,240,0.0,0.0,95,0.00,,,0.00,Wunderground v.1.15,2013-09-12 07:30:00,
2013-09-12 02:40:00,65.0,63.5,29.94,WSW,240,0.0,0.0,95,0.00,,,0.00,Wunderground v.1.15,2013-09-12 07:40:00,
2013-09-12 02:50:00,64.8,63.3,29.94,WSW,240,0.0,0.0,95,0.00,,,0.00,Wunderground v.1.15,2013-09-12 07:50:00,
2013-09-12 02:55:00,64.7,63.2,29.94,WSW,240,0.0,0.0,95,0.00,,,0.00,Wunderground v.1.15,2013-09-12 07:55:00,
2013-09-12 03:00:00,64.6,63.1,29.94,WSW,240,0.0,0.0,95,0.00,,,0.00,Wunderground v.1.15,2013-09-12 08:00:00,
2013-09-12 03:10:00,64.2,62.7,29.94,WSW,240,0.0,0.0,95,0.00,,,0.00,Wunderground v.1.15,2013-09-12 08:10:00,
2013-09-12 03:20:00,64.0,62.5,29.94,WSW,240,0.0,0.0,95,0.00,,,0.00,Wunderground v.1.15,2013-09-12 08:20:00,
2013-09-12 03:25:00,63.9,62.4,29.95,WSW,240,0.0,0.0,95,0.00,,,0.00,Wunderground v.1.15,2013-09-12 08:25:00,
2013-09-12 03:35:00,63.6,62.1,29.94,WSW,240,0.0,0.0,95,0.00,,,0.00,Wunderground v.1.15,2013-09-12 08:35:00,
2013-09-12 03:40:00,63.5,62.0,29.94,WSW,240,0.0,0.0,95,0.00,,,0.00,Wunderground v.1.15,2013-09-12 08:40:00,
2013-09-12 03:50:00,63.4,62.2,29.95,WSW,240,0.0,0.0,96,0.00,,,0.00,Wunderground v.1.15,2013-09-12 08:50:00,
2013-09-12 03:55:00,63.3,61.8,29.94,WSW,240,0.0,0.0,95,0.00,,,0.00,Wunderground v.1.15,2013-09-12 08:55:00,
2013-09-12 04:00:00,63.2,62.0,29.94,WSW,240,0.0,0.0,96,0.00,,,0.00,Wunderground v.1.15,2013-09-12 09:00:00,
2013-09-12 04:10:00,62.9,61.7,29.94,WSW,240,0.0,0.0,96,0.00,,,0.00,Wunderground v.1.15,2013-09-12 09:10:00,
2013-09-12 04:20:00,62.7,61.2,29.94,WSW,240,0.0,0.0,95,0.00,,,0.00,Wunderground v.1.15,2013-09-12 09:20:00,
2013-09-12 04:25:00,62.6,61.1,29.94,WSW,240,0.0,0.0,95,0.00,,,0.00,Wunderground v.1.15,2013-09-12 09:25:00,
2013-09-12 04:30:00,62.4,60.9,29.95,WSW,240,0.0,0.0,95,0.00,,,0.00,Wunderground v.1.15,2013-09-12 09:30:00,
2013-09-12 04:40:00,62.1,60.7,29.95,WSW,240,0.0,0.0,95,0.00,,,0.00,Wunderground v.1.15,2013-09-12 09:40:00,
2013-09-12 04:50:00,62.1,60.9,29.95,WSW,240,0.0,0.0,96,0.00,,,0.00,Wunderground v.1.15,2013-09-12 09:50:00,
2013-09-12 04:55:00,62.1,60.9,29.95,WSW,240,0.0,0.0,96,0.00,,,0.00,Wunderground v.1.15,2013-09-12 09:55:00,
2013-09-12 05:05:00,61.8,60.6,29.95,WSW,240,0.0,0.0,96,0.00,,,0.00,Wunderground v.1.15,2013-09-12 10:05:00,
2013-09-12 05:10:00,61.8,60.6,29.95,WSW,240,0.0,0.0,96,0.00,,,0.00,Wunderground v.1.15,2013-09-12 10:10:00,
2013-09-12 05:20:00,62.0,60.8,29.95,WSW,240,0.0,0.0,96,0.00,,,0.00,Wunderground v.1.15,2013-09-12 10:20:00,
2013-09-12 05:30:00,61.7,60.5,29.95,WSW,240,0.0,0.0,96,0.00,,,0.00,Wunderground v.1.15,2013-09-12 10:30:00,
2013-09-12 05:40:00,61.4,60.2,29.95,WSW,240,0.0,0.0,96,0.00,,,0.00,Wunderground v.1.15,2013-09-12 10:40:00,
2013-09-12 05:50:00,61.5,60.3,29.95,WSW,240,0.0,0.0,96,0.00,,,0.00,Wunderground v.1.15,2013-09-12 10:50:00,
2013-09-12 05:55:00,61.5,60.3,29.95,WSW,240,0.0,0.0,96,0.00,,,0.00,Wunderground v.1.15,2013-09-12 10:55:00,
2013-09-12 06:00:00,61.4,60.2,29.95,WSW,240,0.0,0.0,96,0.00,,,0.00,Wunderground v.1.15,2013-09-12 11:00:00,
2013-09-12 06:10:00,61.1,60.0,29.95,WSW,240,0.0,0.0,96,0.00,,,0.00,Wunderground v.1.15,2013-09-12 11:10:00,
2013-09-12 06:20:00,61.2,60.1,29.95,WSW,240,0.0,0.0,96,0.00,,,0.00,Wunderground v.1.15,2013-09-12 11:20:00,
2013-09-12 06:30:00,61.3,60.2,29.96,WSW,240,0.0,0.0,96,0.00,,,0.00,Wunderground v.1.15,2013-09-12 11:30:00,
2013-09-12 06:40:00,60.9,59.8,29.96,WSW,240,0.0,0.0,96,0.00,,,0.00,Wunderground v.1.15,2013-09-12 11:40:00,
2013-09-12 06:50:00,60.7,59.6,29.96,WSW,240,0.0,0.0,96,0.00,,,0.00,Wunderground v.1.15,2013-09-12 11:50:00,
2013-09-12 06:55:00,60.7,59.6,29.96,WSW,240,0.0,0.0,96,0.00,,,0.00,Wunderground v.1.15,2013-09-12 11:55:00,
2013-09-12 07:00:00,60.7,59.6,29.96,WSW,240,0.0,0.0,96,0.00,,,0.00,Wunderground v.1.15,2013-09-12 12:00:00,
2013-09-12 07:10:00,61.0,59.9,29.96,WSW,240,0.0,0.0,96,0.00,,,0.00,Wunderground v.1.15,2013-09-12 12:10:00,
2013-09-12 07:20:00,61.1,60.0,29.96,WSW,240,0.0,0.0,96,0.00,,,0.00,Wunderground v.1.15,2013-09-12 12:20:00,
2013-09-12 07:25:00,61.1,60.0,29.96,WSW,240,0.0,0.0,96,0.00,,,0.00,Wunderground v.1.15,2013-09-12 12:25:00,
2013-09-12 07:30:00,61.2,60.1,29.96,WSW,240,0.0,0.0,96,0.00,,,0.00,Wunderground v.1.15,2013-09-12 12:30:00,
2013-09-12 07:40:00,61.5,60.6,29.96,WSW,240,0.0,0.0,97,0.00,,,0.00,Wunderground v.1.15,2013-09-12 12:40:00,
2013-09-12 07:50:00,61.9,61.0,29.96,WSW,240,0.0,0.0,97,0.00,,,0.00,Wunderground v.1.15,2013-09-12 12:50:00,
2013-09-12 07:55:00,62.1,61.2,29.96,WSW,240,0.0,0.0,97,0.00,,,0.00,Wunderground v.1.15,2013-09-12 12:55:00,
2013-09-12 08:05:00,62.7,61.8,29.96,WSW,240,0.0,0.0,97,0.00,,,0.00,Wunderground v.1.15,2013-09-12 13:05:00,
2013-09-12 08:10:00,63.1,62.2,29.96,WSW,240,0.0,0.0,97,0.00,,,0.00,Wunderground v.1.15,2013-09-12 13:10:00,
2013-09-12 08:20:00,63.9,63.0,29.96,WSW,240,0.0,0.0,97,0.00,,,0.00,Wunderground v.1.15,2013-09-12 13:20:00,
2013-09-12 08:25:00,64.5,63.6,29.96,WSW,240,0.0,0.0,97,0.00,,,0.00,Wunderground v.1.15,2013-09-12 13:25:00,
2013-09-12 08:30:00,64.9,64.0,29.96,WSW,240,0.0,0.0,97,0.00,,,0.00,Wunderground v.1.15,2013-09-12 13:30:00,
2013-09-12 08:40:00,65.7,64.5,29.96,WSW,240,0.0,0.0,96,0.00,,,0.00,Wunderground v.1.15,2013-09-12 13:40:00,
2013-09-12 08:50:00,66.5,65.0,29.96,WSW,240,0.0,0.0,95,0.00,,,0.00,Wunderground v.1.15,2013-09-12 13:50:00,
2013-09-12 08:55:00,66.7,64.9,29.96,WSW,240,0.0,0.0,94,0.00,,,0.00,Wunderground v.1.15,2013-09-12 13:55:00,
2013-09-12 09:00:00,67.2,65.1,29.96,WSW,240,0.0,0.0,93,0.00,,,0.00,Wunderground v.1.15,2013-09-12 14:00:00,
2013-09-12 09:10:00,68.3,65.9,29.96,WSW,240,0.0,0.0,92,0.00,,,0.00,Wunderground v.1.15,2013-09-12 14:10:00,
2013-09-12 09:20:00,69.2,65.5,29.96,WSW,240,0.0,0.0,88,0.00,,,0.00,Wunderground v.1.15,2013-09-12 14:20:00,
2013-09-12 09:25:00,69.2,64.5,29.96,WSW,240,0.0,0.0,85,0.00,,,0.00,Wunderground v.1.15,2013-09-12 14:25:00,
2013-09-12 09:35:00,69.7,65.3,29.95,WSW,240,0.0,0.0,86,0.00,,,0.00,Wunderground v.1.15,2013-09-12 14:35:00,
2013-09-12 09:40:00,69.8,64.4,29.95,West,265,0.0,0.0,83,0.00,,,0.00,Wunderground v.1.15,2013-09-12 14:40:00,
2013-09-12 09:50:00,71.0,64.5,29.95,West,265,0.0,0.0,80,0.00,,,0.00,Wunderground v.1.15,2013-09-12 14:50:00,
2013-09-12 10:00:00,71.5,65.4,29.94,West,265,0.0,0.0,81,0.00,,,0.00,Wunderground v.1.15,2013-09-12 15:00:00,
2013-09-12 10:10:00,72.1,64.1,29.94,NW,307,0.0,0.0,76,0.00,,,0.00,Wunderground v.1.15,2013-09-12 15:10:00,
2013-09-12 10:20:00,72.7,63.9,29.94,NW,307,0.0,0.0,74,0.00,,,0.00,Wunderground v.1.15,2013-09-12 15:20:00,
2013-09-12 10:25:00,73.0,64.6,29.94,NW,307,0.0,0.0,75,0.00,,,0.00,Wunderground v.1.15,2013-09-12 15:25:00,
2013-09-12 10:30:00,73.1,64.3,29.95,NW,307,0.0,0.0,74,0.00,,,0.00,Wunderground v.1.15,2013-09-12 15:30:00,
2013-09-12 10:40:00,72.7,65.1,29.95,NW,307,0.0,0.0,77,0.00,,,0.00,Wunderground v.1.15,2013-09-12 15:40:00,
2013-09-12 10:50:00,72.4,65.5,29.95,NW,307,0.0,0.0,79,0.00,,,0.00,Wunderground v.1.15,2013-09-12 15:50:00,
2013-09-12 10:55:00,72.2,65.3,29.95,NW,307,0.0,0.0,79,0.00,,,0.00,Wunderground v.1.15,2013-09-12 15:55:00,
2013-09-12 11:05:00,72.5,66.0,29.95,NNW,333,0.0,0.0,80,0.00,,,0.00,Wunderground v.1.15,2013-09-12 16:05:00,
2013-09-12 11:10:00,72.6,66.1,29.95,NNW,333,0.0,0.0,80,0.00,,,0.00,Wunderground v.1.15,2013-09-12 16:10:00,
2013-09-12 11:20:00,72.5,64.5,29.94,SSW,207,0.0,0.0,76,0.00,,,0.00,Wunderground v.1.15,2013-09-12 16:20:00,
2013-09-12 11:25:00,72.6,65.3,29.94,NNW,338,0.0,0.0,78,0.00,,,0.00,Wunderground v.1.15,2013-09-12 16:25:00,
2013-09-12 11:30:00,72.8,65.9,29.93,NNW,338,0.0,0.0,79,0.00,,,0.00,Wunderground v.1.15,2013-09-12 16:30:00,
2013-09-12 11:40:00,73.0,65.7,29.94,NNW,338,0.0,0.0,78,0.00,,,0.00,Wunderground v.1.15,2013-09-12 16:40:00,
2013-09-12 11:50:00,73.0,64.6,29.95,NE,34,0.0,0.0,75,0.00,,,0.00,Wunderground v.1.15,2013-09-12 16:50:00,
2013-09-12 11:55:00,72.9,65.6,29.95,NE,34,0.0,0.0,78,0.00,,,0.00,Wunderground v.1.15,2013-09-12 16:55:00,
2013-09-12 12:00:00,73.2,65.9,29.95,NNE,28,0.0,0.0,78,0.00,,,0.00,Wunderground v.1.15,2013-09-12 17:00:00,
2013-09-12 12:10:00,72.8,65.5,29.95,North,4,0.0,0.0,78,0.00,,,0.00,Wunderground v.1.15,2013-09-12 17:10:00,
2013-09-12 12:20:00,73.1,65.5,29.95,SSW,199,0.0,0.0,77,0.00,,,0.00,Wunderground v.1.15,2013-09-12 17:20:00,
2013-09-12 12:25:00,73.6,65.6,29.95,WNW,282,0.0,0.0,76,0.00,,,0.00,Wunderground v.1.15,2013-09-12 17:25:00,
2013-09-12 12:35:00,73.9,65.9,29.95,South,169,0.0,0.0,76,0.00,,,0.00,Wunderground v.1.15,2013-09-12 17:35:00,
2013-09-12 12:40:00,73.9,65.1,29.95,South,173,0.0,0.0,74,0.00,,,0.00,Wunderground v.1.15,2013-09-12 17:40:00,
2013-09-12 12:50:00,74.6,64.6,29.95,NNE,23,0.0,0.0,71,0.00,,,0.00,Wunderground v.1.15,2013-09-12 17:50:00,
2013-09-12 12:55:00,74.9,65.3,29.95,North,1,0.0,1.0,72,0.00,,,0.00,Wunderground v.1.15,2013-09-12 17:55:00,
2013-09-12 13:00:00,74.4,64.0,29.96,NW,323,0.0,0.0,70,0.00,,,0.00,Wunderground v.1.15,2013-09-12 18:00:00,
2013-09-12 13:10:00,71.3,63.7,29.97,NNE,13,0.0,0.0,77,1.20,,,0.05,Wunderground v.1.15,2013-09-12 18:10:00,
2013-09-12 13:20:00,68.1,63.1,29.97,NNE,12,0.0,0.0,84,0.55,,,0.28,Wunderground v.1.15,2013-09-12 18:20:00,
2013-09-12 13:25:00,67.0,63.0,29.96,NNE,12,0.0,0.0,87,0.10,,,0.28,Wunderground v.1.15,2013-09-12 18:25:00,
2013-09-12 13:30:00,66.2,62.9,29.97,NNE,12,0.0,0.0,89,0.05,,,0.28,Wunderground v.1.15,2013-09-12 18:30:00,
2013-09-12 13:40:00,65.4,63.0,29.97,NNE,12,0.0,0.0,92,0.00,,,0.28,Wunderground v.1.15,2013-09-12 18:40:00,
2013-09-12 13:50:00,65.2,63.1,29.97,NNE,12,0.0,0.0,93,0.00,,,0.28,Wunderground v.1.15,2013-09-12 18:50:00,
2013-09-12 13:55:00,65.0,63.2,29.97,NNE,12,0.0,0.0,94,0.00,,,0.28,Wunderground v.1.15,2013-09-12 18:55:00,
2013-09-12 14:05:00,65.1,63.3,29.98,NNE,12,0.0,0.0,94,0.00,,,0.28,Wunderground v.1.15,2013-09-12 19:05:00,
2013-09-12 14:10:00,65.1,63.3,29.98,North,11,0.0,0.0,94,0.00,,,0.28,Wunderground v.1.15,2013-09-12 19:10:00,
2013-09-12 14:20:00,64.8,63.3,29.98,North,11,0.0,0.0,95,0.00,,,0.28,Wunderground v.1.15,2013-09-12 19:20:00,
2013-09-12 14:30:00,65.2,63.7,29.98,North,11,0.0,0.0,95,0.00,,,0.28,Wunderground v.1.15,2013-09-12 19:30:00,
2013-09-12 14:40:00,65.7,64.5,29.98,North,9,0.0,0.0,96,0.00,,,0.28,Wunderground v.1.15,2013-09-12 19:40:00,
2013-09-12 14:50:00,66.0,64.2,29.97,SSW,196,0.0,0.0,94,0.00,,,0.28,Wunderground v.1.15,2013-09-12 19:50:00,
2013-09-12 14:55:00,65.8,63.1,29.97,South,187,1.0,1.0,91,0.00,,,0.28,Wunderground v.1.15,2013-09-12 19:55:00,
2013-09-12 15:00:00,66.2,63.2,29.97,NNW,340,1.0,1.0,90,0.00,,,0.28,Wunderground v.1.15,2013-09-12 20:00:00,
2013-09-12 15:10:00,66.3,62.6,29.97,South,178,0.0,0.0,88,0.00,,,0.28,Wunderground v.1.15,2013-09-12 20:10:00,
2013-09-12 15:20:00,66.1,63.1,29.98,SW,225,0.0,0.0,90,0.00,,,0.28,Wunderground v.1.15,2013-09-12 20:20:00,
2013-09-12 15:25:00,66.1,62.8,29.98,WNW,303,0.0,0.0,89,0.00,,,0.28,Wunderground v.1.15,2013-09-12 20:25:00,
2013-09-12 15:35:00,66.8,63.1,29.97,SSW,207,0.0,0.0,88,0.00,,,0.28,Wunderground v.1.15,2013-09-12 20:35:00,
2013-09-12 15:40:00,67.2,63.5,29.97,WSW,242,0.0,0.0,88,0.00,,,0.28,Wunderground v.1.15,2013-09-12 20:40:00,
2013-09-12 15:50:00,67.5,62.5,29.97,SW,224,0.0,0.0,84,0.00,,,0.28,Wunderground v.1.15,2013-09-12 20:50:00,
2013-09-12 15:55:00,67.9,63.6,29.97,SW,226,0.0,0.0,86,0.00,,,0.28,Wunderground v.1.15,2013-09-12 20:55:00,
2013-09-12 16:00:00,68.8,63.4,29.97,SSW,199,0.0,0.0,83,0.00,,,0.28,Wunderground v.1.15,2013-09-12 21:00:00,
2013-09-12 16:10:00,69.9,63.8,29.97,NE,41,0.0,0.0,81,0.00,,,0.28,Wunderground v.1.15,2013-09-12 21:10:00,
2013-09-12 16:20:00,70.1,61.0,29.97,NE,36,0.0,0.0,73,0.00,,,0.28,Wunderground v.1.15,2013-09-12 21:20:00,
2013-09-12 16:25:00,69.7,61.8,29.97,WSW,248,0.0,0.0,76,0.00,,,0.28,Wunderground v.1.15,2013-09-12 21:25:00,
2013-09-12 16:30:00,68.9,59.9,29.97,SSW,201,1.0,1.0,73,0.00,,,0.28,Wunderground v.1.15,2013-09-12 21:30:00,
2013-09-12 16:40:00,68.3,60.4,29.98,WSW,256,0.0,0.0,76,0.00,,,0.28,Wunderground v.1.15,2013-09-12 21:40:00,
2013-09-12 16:50:00,67.9,61.1,29.97,SW,226,0.0,2.0,79,0.00,,,0.28,Wunderground v.1.15,2013-09-12 21:50:00,
2013-09-12 17:00:00,67.9,58.9,29.97,West,276,0.0,0.0,73,0.00,,,0.28,Wunderground v.1.15,2013-09-12 22:00:00,
2013-09-12 17:10:00,68.3,58.9,29.98,SW,234,1.0,1.0,72,0.00,,,0.28,Wunderground v.1.15,2013-09-12 22:10:00,
2013-09-12 17:20:00,68.3,56.9,29.98,SE,145,1.0,2.0,67,0.00,,,0.28,Wunderground v.1.15,2013-09-12 22:20:00,
2013-09-12 17:25:00,68.3,57.7,29.98,WSW,252,0.0,2.0,69,0.00,,,0.28,Wunderground v.1.15,2013-09-12 22:25:00,
2013-09-12 17:30:00,68.4,57.8,29.98,WNW,288,0.0,0.0,69,0.00,,,0.28,Wunderground v.1.15,2013-09-12 22:30:00,
2013-09-12 17:40:00,68.5,59.9,29.99,WSW,247,1.0,1.0,74,0.00,,,0.28,Wunderground v.1.15,2013-09-12 22:40:00,
2013-09-12 17:50:00,68.0,59.8,29.99,South,190,0.0,0.0,75,0.00,,,0.28,Wunderground v.1.15,2013-09-12 22:50:00,
2013-09-12 17:55:00,67.7,59.1,29.99,South,170,0.0,0.0,74,0.00,,,0.28,Wunderground v.1.15,2013-09-12 22:55:00,
2013-09-12 18:00:00,67.7,60.6,29.99,South,176,0.0,0.0,78,0.00,,,0.28,Wunderground v.1.15,2013-09-12 23:00:00,
2013-09-12 18:10:00,67.4,60.7,30.00,South,176,0.0,0.0,79,0.00,,,0.28,Wunderground v.1.15,2013-09-12 23:10:00,
2013-09-12 18:20:00,66.6,60.2,30.00,SSE,163,0.0,0.0,80,0.00,,,0.28,Wunderground v.1.15,2013-09-12 23:20:00,
2013-09-12 18:30:00,66.0,60.0,30.00,South,172,0.0,0.0,81,0.00,,,0.28,Wunderground v.1.15,2013-09-12 23:30:00,
2013-09-12 18:40:00,65.4,59.4,30.01,SSW,194,0.0,0.0,81,0.00,,,0.28,Wunderground v.1.15,2013-09-12 23:40:00,
2013-09-12 18:50:00,65.0,59.7,30.01,SSW,196,0.0,0.0,83,0.00,,,0.28,Wunderground v.1.15,2013-09-12 23:50:00,
2013-09-12 18:55:00,64.8,59.5,30.02,SSW,205,0.0,1.0,83,0.00,,,0.28,Wunderground v.1.15,2013-09-12 23:55:00,
2013-09-12 19:00:00,64.7,59.4,30.02,SSW,205,0.0,0.0,83,0.00,,,0.28,Wunderground v.1.15,2013-09-13 00:00:00,
2013-09-12 19:10:00,64.0,59.4,30.02,SSW,205,0.0,0.0,85,0.00,,,0.28,Wunderground v.1.15,2013-09-13 00:10:00,
2013-09-12 19:20:00,63.4,59.1,30.02,SSW,205,0.0,0.0,86,0.00,,,0.28,Wunderground v.1.15,2013-09-13 00:20:00,
2013-09-12 19:25:00,63.2,58.9,30.02,SSW,205,0.0,0.0,86,0.00,,,0.28,Wunderground v.1.15,2013-09-13 00:25:00,
2013-09-12 19:30:00,63.0,59.1,30.03,SSW,205,0.0,0.0,87,0.00,,,0.28,Wunderground v.1.15,2013-09-13 00:30:00,
2013-09-12 19:40:00,62.6,58.7,30.03,SSW,205,0.0,0.0,87,0.00,,,0.28,Wunderground v.1.15,2013-09-13 00:40:00,
2013-09-12 19:50:00,62.2,58.3,30.03,SW,231,0.0,0.0,87,0.00,,,0.28,Wunderground v.1.15,2013-09-13 00:50:00,
2013-09-12 19:55:00,62.0,58.1,30.04,SW,231,0.0,0.0,87,0.00,,,0.28,Wunderground v.1.15,2013-09-13 00:55:00,
2013-09-12 20:05:00,61.8,57.9,30.04,SW,231,0.0,0.0,87,0.00,,,0.28,Wunderground v.1.15,2013-09-13 01:05:00,
2013-09-12 20:10:00,61.6,57.7,30.04,SW,231,0.0,0.0,87,0.00,,,0.28,Wunderground v.1.15,2013-09-13 01:10:00,
2013-09-12 20:20:00,61.2,57.6,30.05,SW,231,0.0,0.0,88,0.00,,,0.28,Wunderground v.1.15,2013-09-13 01:20:00,
2013-09-12 20:25:00,61.0,57.7,30.05,SW,231,0.0,0.0,89,0.00,,,0.28,Wunderground v.1.15,2013-09-13 01:25:00,
2013-09-12 20:30:00,61.0,57.7,30.05,West,267,0.0,0.0,89,0.00,,,0.28,Wunderground v.1.15,2013-09-13 01:30:00,
2013-09-12 20:40:00,60.8,57.5,30.05,West,262,0.0,0.0,89,0.00,,,0.28,Wunderground v.1.15,2013-09-13 01:40:00,
2013-09-12 20:50:00,60.7,57.4,30.06,SW,230,0.0,0.0,89,0.00,,,0.28,Wunderground v.1.15,2013-09-13 01:50:00,
2013-09-12 20:55:00,60.7,57.4,30.06,SW,230,0.0,0.0,89,0.00,,,0.28,Wunderground v.1.15,2013-09-13 01:55:00,
2013-09-12 21:00:00,60.6,57.3,30.06,WSW,247,0.0,0.0,89,0.00,,,0.28,Wunderground v.1.15,2013-09-13 02:00:00,
2013-09-12 21:10:00,60.5,57.6,30.06,West,259,0.0,0.0,90,0.00,,,0.28,Wunderground v.1.15,2013-09-13 02:10:00,
2013-09-12 21:20:00,60.2,57.3,30.06,WNW,287,0.0,0.0,90,0.00,,,0.28,Wunderground v.1.15,2013-09-13 02:20:00,
2013-09-12 21:30:00,59.9,57.0,30.06,West,260,0.0,0.0,90,0.00,,,0.28,Wunderground v.1.15,2013-09-13 02:30:00,
2013-09-12 21:40:00,59.9,57.0,30.06,WSW,238,0.0,0.0,90,0.00,,,0.28,Wunderground v.1.15,2013-09-13 02:40:00,
2013-09-12 21:50:00,59.7,56.8,30.07,SW,232,0.0,0.0,90,0.00,,,0.28,Wunderground v.1.15,2013-09-13 02:50:00,
2013-09-12 21:55:00,59.7,56.8,30.07,WSW,247,0.0,0.0,90,0.00,,,0.28,Wunderground v.1.15,2013-09-13 02:55:00,
2013-09-12 22:00:00,59.7,56.8,30.07,NW,321,0.0,0.0,90,0.00,,,0.28,Wunderground v.1.15,2013-09-13 03:00:00,
2013-09-12 22:10:00,59.4,56.5,30.07,WNW,286,0.0,0.0,90,0.00,,,0.28,Wunderground v.1.15,2013-09-13 03:10:00,
2013-09-12 22:20:00,59.3,56.4,30.07,NNW,336,0.0,0.0,90,0.00,,,0.28,Wunderground v.1.15,2013-09-13 03:20:00,
2013-09-12 22:25:00,59.2,56.3,30.08,NW,317,0.0,0.0,90,0.00,,,0.28,Wunderground v.1.15,2013-09-13 03:25:00,
2013-09-12 22:30:00,59.1,55.9,30.07,SSW,207,0.0,1.0,89,0.00,,,0.28,Wunderground v.1.15,2013-09-13 03:30:00,
2013-09-12 22:40:00,58.9,55.7,30.08,NW,308,0.0,0.0,89,0.00,,,0.28,Wunderground v.1.15,2013-09-13 03:40:00,
2013-09-12 22:50:00,58.7,55.2,30.08,North,350,0.0,0.0,88,0.00,,,0.28,Wunderground v.1.15,2013-09-13 03:50:00,
2013-09-12 23:00:00,58.5,54.6,30.08,SSW,210,0.0,0.0,87,0.00,,,0.28,Wunderground v.1.15,2013-09-13 04:00:00,
2013-09-12 23:05:00,58.3,54.1,30.09,SSW,201,0.0,0.0,86,0.00,,,0.28,Wunderground v.1.15,2013-09-13 04:05:00,
2013-09-12 23:10:00,58.1,53.9,30.09,NNE,17,0.0,0.0,86,0.00,,,0.28,Wunderground v.1.15,2013-09-13 04:10:00,
2013-09-12 23:15:00,57.9,53.4,30.09,South,190,0.0,0.0,85,0.00,,,0.28,Wunderground v.1.15,2013-09-13 04:15:00,
2013-09-12 23:20:00,57.8,53.3,30.09,NNW,346,0.0,0.0,85,0.00,,,0.28,Wunderground v.1.15,2013-09-13 04:20:00,
2013-09-12 23:25:00,57.7,53.2,30.10,SSW,195,0.0,0.0,85,0.00,,,0.28,Wunderground v.1.15,2013-09-13 04:25:00,
2013-09-12 23:30:00,57.6,52.8,30.10,WNW,296,0.0,0.0,84,0.00,,,0.28,Wunderground v.1.15,2013-09-13 04:30:00,
2013-09-12 23:40:00,57.6,52.1,30.10,SSW,196,0.0,0.0,82,0.00,,,0.28,Wunderground v.1.15,2013-09-13 04:40:00,
2013-09-12 23:50:00,57.5,51.4,30.10,SSW,205,0.0,0.0,80,0.00,,,0.28,Wunderground v.1.15,2013-09-13 04:50:00,
2013-09-12 23:55:00,57.4,50.9,30.10,SSW,206,0.0,0.0,79,0.00,,,0.28,Wunderground v.1.15,2013-09-13 04:55:00,